sensor_id;sensor_type;location;lat;lon;timestamp;temperature;humidity
23271;DHT22;11804;51.118;17.058;2022-08-21T00:01:33;21.30;99.90
23271;DHT22;11804;51.118;17.058;2022-08-21T00:04:05;21.30;99.90
23271;DHT22;11804;51.118;17.058;2022-08-21T00:06:34;21.20;99.90
23271;DHT22;11804;51.118;17.058;2022-08-21T00:09:04;21.20;99.90
23271;DHT22;11804;51.118;17.058;2022-08-21T00:11:34;21.30;99.90
23271;DHT22;11804;51.118;17.058;2022-08-21T00:14:05;21.20;99.90
23271;DHT22;11804;51.118;17.058;2022-08-21T00:16:33;21.20;99.90
23271;DHT22;11804;51.118;17.058;2022-08-21T00:19:01;21.20;99.90
23271;DHT22;11804;51.118;17.058;2022-08-21T00:21:29;21.10;99.90
23271;DHT22;11804;51.118;17.058;2022-08-21T00:23:56;21.10;99.90
23271;DHT22;11804;51.118;17.058;2022-08-21T00:26:24;21.10;99.90
23271;DHT22;11804;51.118;17.058;2022-08-21T00:28:52;21.00;99.90
23271;DHT22;11804;51.118;17.058;2022-08-21T00:31:22;21.00;99.90
23271;DHT22;11804;51.118;17.058;2022-08-21T00:33:49;21.00;99.90
23271;DHT22;11804;51.118;17.058;2022-08-21T00:36:17;21.00;99.90
23271;DHT22;11804;51.118;17.058;2022-08-21T00:38:44;20.90;99.90
23271;DHT22;11804;51.118;17.058;2022-08-21T00:41:12;20.90;99.90
23271;DHT22;11804;51.118;17.058;2022-08-21T00:43:40;20.90;99.90
23271;DHT22;11804;51.118;17.058;2022-08-21T00:46:07;20.90;99.90
23271;DHT22;11804;51.118;17.058;2022-08-21T00:48:35;20.90;99.90
23271;DHT22;11804;51.118;17.058;2022-08-21T00:51:14;20.90;99.90
23271;DHT22;11804;51.118;17.058;2022-08-21T00:53:43;20.80;99.90
23271;DHT22;11804;51.118;17.058;2022-08-21T00:56:12;20.80;99.90
23271;DHT22;11804;51.118;17.058;2022-08-21T00:58:41;20.80;99.90
23271;DHT22;11804;51.118;17.058;2022-08-21T01:01:10;20.80;99.90
23271;DHT22;11804;51.118;17.058;2022-08-21T01:03:38;20.80;99.90
23271;DHT22;11804;51.118;17.058;2022-08-21T01:06:06;20.90;99.90
23271;DHT22;11804;51.118;17.058;2022-08-21T01:08:34;20.80;99.90
23271;DHT22;11804;51.118;17.058;2022-08-21T01:11:03;20.70;99.90
23271;DHT22;11804;51.118;17.058;2022-08-21T01:13:35;20.70;99.90
23271;DHT22;11804;51.118;17.058;2022-08-21T01:16:04;20.70;99.90
23271;DHT22;11804;51.118;17.058;2022-08-21T01:18:32;20.70;99.90
23271;DHT22;11804;51.118;17.058;2022-08-21T01:21:13;20.60;99.90
23271;DHT22;11804;51.118;17.058;2022-08-21T01:23:43;20.60;99.90
23271;DHT22;11804;51.118;17.058;2022-08-21T01:26:13;20.50;99.90
23271;DHT22;11804;51.118;17.058;2022-08-21T01:28:49;20.50;99.90
23271;DHT22;11804;51.118;17.058;2022-08-21T01:31:17;20.40;99.90
23271;DHT22;11804;51.118;17.058;2022-08-21T01:33:46;20.40;99.90
23271;DHT22;11804;51.118;17.058;2022-08-21T01:36:13;20.30;99.90
23271;DHT22;11804;51.118;17.058;2022-08-21T01:38:41;20.30;99.90
23271;DHT22;11804;51.118;17.058;2022-08-21T01:41:08;20.30;99.90
23271;DHT22;11804;51.118;17.058;2022-08-21T01:43:36;20.30;99.90
23271;DHT22;11804;51.118;17.058;2022-08-21T01:46:04;20.30;99.90
23271;DHT22;11804;51.118;17.058;2022-08-21T01:48:32;20.30;99.90
23271;DHT22;11804;51.118;17.058;2022-08-21T01:51:00;20.20;99.90
23271;DHT22;11804;51.118;17.058;2022-08-21T01:53:28;20.10;99.90
23271;DHT22;11804;51.118;17.058;2022-08-21T01:55:56;20.10;99.90
23271;DHT22;11804;51.118;17.058;2022-08-21T01:58:23;20.00;99.90
23271;DHT22;11804;51.118;17.058;2022-08-21T02:00:51;20.00;99.90
23271;DHT22;11804;51.118;17.058;2022-08-21T02:03:18;20.10;99.90
23271;DHT22;11804;51.118;17.058;2022-08-21T02:05:46;20.10;99.90
23271;DHT22;11804;51.118;17.058;2022-08-21T02:08:13;20.00;99.90
23271;DHT22;11804;51.118;17.058;2022-08-21T02:10:41;19.90;99.90
23271;DHT22;11804;51.118;17.058;2022-08-21T02:13:08;19.90;99.90
23271;DHT22;11804;51.118;17.058;2022-08-21T02:15:36;19.90;99.90
23271;DHT22;11804;51.118;17.058;2022-08-21T02:18:05;19.90;99.90
23271;DHT22;11804;51.118;17.058;2022-08-21T02:20:41;19.90;99.90
23271;DHT22;11804;51.118;17.058;2022-08-21T02:23:04;19.90;99.90
23271;DHT22;11804;51.118;17.058;2022-08-21T02:25:33;19.90;99.90
23271;DHT22;11804;51.118;17.058;2022-08-21T02:28:04;19.90;99.90
23271;DHT22;11804;51.118;17.058;2022-08-21T02:30:34;19.90;99.90
23271;DHT22;11804;51.118;17.058;2022-08-21T02:33:05;19.80;99.90
23271;DHT22;11804;51.118;17.058;2022-08-21T02:35:33;19.80;99.90
23271;DHT22;11804;51.118;17.058;2022-08-21T02:38:08;19.80;99.90
23271;DHT22;11804;51.118;17.058;2022-08-21T02:40:34;19.80;99.90
23271;DHT22;11804;51.118;17.058;2022-08-21T02:43:04;19.80;99.90
23271;DHT22;11804;51.118;17.058;2022-08-21T02:45:33;19.80;99.90
23271;DHT22;11804;51.118;17.058;2022-08-21T02:48:09;19.80;99.90
23271;DHT22;11804;51.118;17.058;2022-08-21T02:50:40;19.80;99.90
23271;DHT22;11804;51.118;17.058;2022-08-21T02:53:10;19.80;99.90
23271;DHT22;11804;51.118;17.058;2022-08-21T02:55:39;19.70;99.90
23271;DHT22;11804;51.118;17.058;2022-08-21T02:58:08;19.70;99.90
23271;DHT22;11804;51.118;17.058;2022-08-21T03:00:37;19.70;99.90
23271;DHT22;11804;51.118;17.058;2022-08-21T03:03:05;19.70;99.90
23271;DHT22;11804;51.118;17.058;2022-08-21T03:05:36;19.60;99.90
23271;DHT22;11804;51.118;17.058;2022-08-21T03:08:06;19.60;99.90
23271;DHT22;11804;51.118;17.058;2022-08-21T03:10:39;19.60;99.90
23271;DHT22;11804;51.118;17.058;2022-08-21T03:13:07;19.60;99.90
23271;DHT22;11804;51.118;17.058;2022-08-21T03:15:35;19.60;99.90
23271;DHT22;11804;51.118;17.058;2022-08-21T03:18:03;19.60;99.90
23271;DHT22;11804;51.118;17.058;2022-08-21T03:20:32;19.60;99.90
23271;DHT22;11804;51.118;17.058;2022-08-21T03:23:00;19.70;99.90
23271;DHT22;11804;51.118;17.058;2022-08-21T03:25:30;19.60;99.90
23271;DHT22;11804;51.118;17.058;2022-08-21T03:28:00;19.60;99.90
23271;DHT22;11804;51.118;17.058;2022-08-21T03:30:27;19.70;99.90
23271;DHT22;11804;51.118;17.058;2022-08-21T03:32:58;19.60;99.90
23271;DHT22;11804;51.118;17.058;2022-08-21T03:35:27;19.60;99.90
23271;DHT22;11804;51.118;17.058;2022-08-21T03:37:55;19.60;99.90
23271;DHT22;11804;51.118;17.058;2022-08-21T03:40:23;19.60;99.90
23271;DHT22;11804;51.118;17.058;2022-08-21T03:42:51;19.60;99.90
23271;DHT22;11804;51.118;17.058;2022-08-21T03:45:19;19.60;99.90
23271;DHT22;11804;51.118;17.058;2022-08-21T03:47:58;19.60;99.90
23271;DHT22;11804;51.118;17.058;2022-08-21T03:50:30;19.50;99.90
23271;DHT22;11804;51.118;17.058;2022-08-21T03:52:58;19.50;99.90
23271;DHT22;11804;51.118;17.058;2022-08-21T03:55:26;19.50;99.90
23271;DHT22;11804;51.118;17.058;2022-08-21T03:57:54;19.50;99.90
23271;DHT22;11804;51.118;17.058;2022-08-21T04:00:22;19.50;99.90
23271;DHT22;11804;51.118;17.058;2022-08-21T04:02:50;19.50;99.90
23271;DHT22;11804;51.118;17.058;2022-08-21T04:05:19;19.50;99.90
23271;DHT22;11804;51.118;17.058;2022-08-21T04:07:59;19.40;99.90
23271;DHT22;11804;51.118;17.058;2022-08-21T04:10:30;19.40;99.90
23271;DHT22;11804;51.118;17.058;2022-08-21T04:13:00;19.40;99.90
23271;DHT22;11804;51.118;17.058;2022-08-21T04:15:28;19.40;99.90
23271;DHT22;11804;51.118;17.058;2022-08-21T04:17:58;19.50;99.90
23271;DHT22;11804;51.118;17.058;2022-08-21T04:20:25;19.50;99.90
23271;DHT22;11804;51.118;17.058;2022-08-21T04:22:54;19.50;99.90
23271;DHT22;11804;51.118;17.058;2022-08-21T04:25:23;19.50;99.90
23271;DHT22;11804;51.118;17.058;2022-08-21T04:27:52;19.40;99.90
23271;DHT22;11804;51.118;17.058;2022-08-21T04:30:21;19.40;99.90
23271;DHT22;11804;51.118;17.058;2022-08-21T04:32:50;19.50;99.90
23271;DHT22;11804;51.118;17.058;2022-08-21T04:35:21;19.40;99.90
23271;DHT22;11804;51.118;17.058;2022-08-21T04:37:49;19.40;99.90
23271;DHT22;11804;51.118;17.058;2022-08-21T04:40:18;19.40;99.90
23271;DHT22;11804;51.118;17.058;2022-08-21T04:42:52;19.50;99.90
23271;DHT22;11804;51.118;17.058;2022-08-21T04:45:19;19.40;99.90
23271;DHT22;11804;51.118;17.058;2022-08-21T04:47:49;19.50;99.90
23271;DHT22;11804;51.118;17.058;2022-08-21T04:50:18;19.50;99.90
23271;DHT22;11804;51.118;17.058;2022-08-21T04:52:47;19.50;99.90
23271;DHT22;11804;51.118;17.058;2022-08-21T04:55:16;19.50;99.90
23271;DHT22;11804;51.118;17.058;2022-08-21T04:57:45;19.50;99.90
23271;DHT22;11804;51.118;17.058;2022-08-21T05:00:14;19.50;99.90
23271;DHT22;11804;51.118;17.058;2022-08-21T05:02:42;19.50;99.90
23271;DHT22;11804;51.118;17.058;2022-08-21T05:05:10;19.50;99.90
23271;DHT22;11804;51.118;17.058;2022-08-21T05:07:38;19.50;99.90
23271;DHT22;11804;51.118;17.058;2022-08-21T05:10:07;19.50;99.90
23271;DHT22;11804;51.118;17.058;2022-08-21T05:12:35;19.50;99.90
23271;DHT22;11804;51.118;17.058;2022-08-21T05:15:03;19.50;99.90
23271;DHT22;11804;51.118;17.058;2022-08-21T05:17:31;19.50;99.90
23271;DHT22;11804;51.118;17.058;2022-08-21T05:19:59;19.50;99.90
23271;DHT22;11804;51.118;17.058;2022-08-21T05:22:26;19.50;99.90
23271;DHT22;11804;51.118;17.058;2022-08-21T05:24:54;19.60;99.90
23271;DHT22;11804;51.118;17.058;2022-08-21T05:27:21;19.70;99.90
23271;DHT22;11804;51.118;17.058;2022-08-21T05:29:49;19.90;99.90
23271;DHT22;11804;51.118;17.058;2022-08-21T05:32:16;19.80;99.90
23271;DHT22;11804;51.118;17.058;2022-08-21T05:34:44;19.60;99.90
23271;DHT22;11804;51.118;17.058;2022-08-21T05:37:12;19.50;99.90
23271;DHT22;11804;51.118;17.058;2022-08-21T05:39:40;19.50;99.90
23271;DHT22;11804;51.118;17.058;2022-08-21T05:42:08;19.50;99.90
23271;DHT22;11804;51.118;17.058;2022-08-21T05:44:35;19.50;99.90
23271;DHT22;11804;51.118;17.058;2022-08-21T05:47:05;19.60;99.90
23271;DHT22;11804;51.118;17.058;2022-08-21T05:49:33;19.60;99.90
23271;DHT22;11804;51.118;17.058;2022-08-21T05:52:02;19.50;99.90
23271;DHT22;11804;51.118;17.058;2022-08-21T05:54:31;19.40;99.90
23271;DHT22;11804;51.118;17.058;2022-08-21T05:56:59;19.60;99.90
23271;DHT22;11804;51.118;17.058;2022-08-21T05:59:26;19.50;99.90
23271;DHT22;11804;51.118;17.058;2022-08-21T06:01:54;19.60;99.90
23271;DHT22;11804;51.118;17.058;2022-08-21T06:04:21;19.60;99.90
23271;DHT22;11804;51.118;17.058;2022-08-21T06:06:49;19.60;99.90
23271;DHT22;11804;51.118;17.058;2022-08-21T06:09:16;19.50;99.90
23271;DHT22;11804;51.118;17.058;2022-08-21T06:11:44;19.60;99.90
23271;DHT22;11804;51.118;17.058;2022-08-21T06:14:14;19.50;99.90
23271;DHT22;11804;51.118;17.058;2022-08-21T06:16:42;19.50;99.90
23271;DHT22;11804;51.118;17.058;2022-08-21T06:19:09;19.60;99.90
23271;DHT22;11804;51.118;17.058;2022-08-21T06:21:37;19.50;99.90
23271;DHT22;11804;51.118;17.058;2022-08-21T06:24:05;19.50;99.90
23271;DHT22;11804;51.118;17.058;2022-08-21T06:26:33;19.40;99.90
23271;DHT22;11804;51.118;17.058;2022-08-21T06:29:01;19.30;99.90
23271;DHT22;11804;51.118;17.058;2022-08-21T06:31:29;19.30;99.90
23271;DHT22;11804;51.118;17.058;2022-08-21T06:33:57;19.30;99.90
23271;DHT22;11804;51.118;17.058;2022-08-21T06:36:24;19.30;99.90
23271;DHT22;11804;51.118;17.058;2022-08-21T06:38:52;19.30;99.90
23271;DHT22;11804;51.118;17.058;2022-08-21T06:43:48;19.20;99.90
23271;DHT22;11804;51.118;17.058;2022-08-21T06:46:16;19.20;99.90
23271;DHT22;11804;51.118;17.058;2022-08-21T06:48:44;19.20;99.90
23271;DHT22;11804;51.118;17.058;2022-08-21T06:51:12;19.20;99.90
23271;DHT22;11804;51.118;17.058;2022-08-21T06:53:39;19.10;99.90
23271;DHT22;11804;51.118;17.058;2022-08-21T06:56:07;19.20;99.90
23271;DHT22;11804;51.118;17.058;2022-08-21T06:58:34;19.10;99.90
23271;DHT22;11804;51.118;17.058;2022-08-21T07:01:02;19.00;99.90
23271;DHT22;11804;51.118;17.058;2022-08-21T07:03:33;18.90;99.90
23271;DHT22;11804;51.118;17.058;2022-08-21T07:06:01;18.90;99.90
23271;DHT22;11804;51.118;17.058;2022-08-21T07:08:29;18.80;99.90
23271;DHT22;11804;51.118;17.058;2022-08-21T07:10:59;18.70;99.90
23271;DHT22;11804;51.118;17.058;2022-08-21T07:13:27;18.80;99.90
23271;DHT22;11804;51.118;17.058;2022-08-21T07:15:55;18.80;99.90
23271;DHT22;11804;51.118;17.058;2022-08-21T07:18:22;18.70;99.90
23271;DHT22;11804;51.118;17.058;2022-08-21T07:20:50;18.60;99.90
23271;DHT22;11804;51.118;17.058;2022-08-21T07:23:24;18.60;99.90
23271;DHT22;11804;51.118;17.058;2022-08-21T07:25:51;18.50;99.90
23271;DHT22;11804;51.118;17.058;2022-08-21T07:28:19;18.40;99.90
23271;DHT22;11804;51.118;17.058;2022-08-21T07:30:52;18.20;99.90
23271;DHT22;11804;51.118;17.058;2022-08-21T07:33:20;18.20;99.90
23271;DHT22;11804;51.118;17.058;2022-08-21T07:35:48;18.10;99.90
23271;DHT22;11804;51.118;17.058;2022-08-21T07:38:15;18.10;99.90
23271;DHT22;11804;51.118;17.058;2022-08-21T07:40:43;18.30;99.90
23271;DHT22;11804;51.118;17.058;2022-08-21T07:43:11;18.50;99.90
23271;DHT22;11804;51.118;17.058;2022-08-21T07:45:41;18.50;99.90
23271;DHT22;11804;51.118;17.058;2022-08-21T07:48:09;18.50;99.90
23271;DHT22;11804;51.118;17.058;2022-08-21T07:50:36;18.50;99.90
23271;DHT22;11804;51.118;17.058;2022-08-21T07:53:04;18.40;99.90
23271;DHT22;11804;51.118;17.058;2022-08-21T07:55:31;18.50;99.90
23271;DHT22;11804;51.118;17.058;2022-08-21T07:57:59;18.60;99.90
23271;DHT22;11804;51.118;17.058;2022-08-21T08:00:28;18.70;99.90
23271;DHT22;11804;51.118;17.058;2022-08-21T08:02:56;18.50;99.90
23271;DHT22;11804;51.118;17.058;2022-08-21T08:05:26;18.50;99.90
23271;DHT22;11804;51.118;17.058;2022-08-21T08:07:54;18.50;99.90
23271;DHT22;11804;51.118;17.058;2022-08-21T08:10:23;18.30;99.90
23271;DHT22;11804;51.118;17.058;2022-08-21T08:12:50;18.20;99.90
23271;DHT22;11804;51.118;17.058;2022-08-21T08:15:21;18.20;99.90
23271;DHT22;11804;51.118;17.058;2022-08-21T08:17:49;18.20;99.90
23271;DHT22;11804;51.118;17.058;2022-08-21T08:20:17;18.20;99.90
23271;DHT22;11804;51.118;17.058;2022-08-21T08:22:46;18.40;99.90
23271;DHT22;11804;51.118;17.058;2022-08-21T08:25:14;18.30;99.90
23271;DHT22;11804;51.118;17.058;2022-08-21T08:27:42;18.40;99.90
23271;DHT22;11804;51.118;17.058;2022-08-21T08:30:11;18.40;99.90
23271;DHT22;11804;51.118;17.058;2022-08-21T08:32:39;18.20;99.90
23271;DHT22;11804;51.118;17.058;2022-08-21T08:35:08;18.20;99.90
23271;DHT22;11804;51.118;17.058;2022-08-21T08:37:37;18.20;99.90
23271;DHT22;11804;51.118;17.058;2022-08-21T08:40:19;18.10;99.90
23271;DHT22;11804;51.118;17.058;2022-08-21T08:42:43;17.90;99.90
23271;DHT22;11804;51.118;17.058;2022-08-21T08:45:13;17.80;99.90
23271;DHT22;11804;51.118;17.058;2022-08-21T08:47:50;17.80;99.90
23271;DHT22;11804;51.118;17.058;2022-08-21T08:50:49;17.90;99.90
23271;DHT22;11804;51.118;17.058;2022-08-21T08:53:22;18.30;99.90
23271;DHT22;11804;51.118;17.058;2022-08-21T08:55:50;18.40;99.90
23271;DHT22;11804;51.118;17.058;2022-08-21T08:58:24;18.40;99.90
23271;DHT22;11804;51.118;17.058;2022-08-21T09:00:53;18.50;99.90
23271;DHT22;11804;51.118;17.058;2022-08-21T09:03:23;18.50;99.90
23271;DHT22;11804;51.118;17.058;2022-08-21T09:06:11;18.60;99.90
23271;DHT22;11804;51.118;17.058;2022-08-21T09:08:50;18.70;99.90
23271;DHT22;11804;51.118;17.058;2022-08-21T09:11:43;18.60;99.90
23271;DHT22;11804;51.118;17.058;2022-08-21T09:14:17;18.50;99.90
23271;DHT22;11804;51.118;17.058;2022-08-21T09:19:43;18.30;99.90
23271;DHT22;11804;51.118;17.058;2022-08-21T09:22:26;18.30;99.90
23271;DHT22;11804;51.118;17.058;2022-08-21T09:27:37;18.40;99.90
23271;DHT22;11804;51.118;17.058;2022-08-21T09:30:07;18.30;99.90
23271;DHT22;11804;51.118;17.058;2022-08-21T09:32:37;18.40;99.90
23271;DHT22;11804;51.118;17.058;2022-08-21T09:37:56;18.10;99.90
23271;DHT22;11804;51.118;17.058;2022-08-21T09:40:43;18.10;99.90
23271;DHT22;11804;51.118;17.058;2022-08-21T09:43:20;18.10;99.90
23271;DHT22;11804;51.118;17.058;2022-08-21T09:45:48;18.00;99.90
23271;DHT22;11804;51.118;17.058;2022-08-21T09:48:22;18.10;99.90
23271;DHT22;11804;51.118;17.058;2022-08-21T09:50:51;18.10;99.90
23271;DHT22;11804;51.118;17.058;2022-08-21T09:53:22;18.20;99.90
23271;DHT22;11804;51.118;17.058;2022-08-21T09:56:04;18.10;99.90
23271;DHT22;11804;51.118;17.058;2022-08-21T09:58:51;18.10;99.90
23271;DHT22;11804;51.118;17.058;2022-08-21T10:01:21;18.20;99.90
23271;DHT22;11804;51.118;17.058;2022-08-21T10:04:01;18.30;99.90
23271;DHT22;11804;51.118;17.058;2022-08-21T10:06:24;18.30;99.90
23271;DHT22;11804;51.118;17.058;2022-08-21T10:09:17;18.30;99.90
23271;DHT22;11804;51.118;17.058;2022-08-21T10:11:24;18.50;99.90
23271;DHT22;11804;51.118;17.058;2022-08-21T10:14:19;18.50;99.90
23271;DHT22;11804;51.118;17.058;2022-08-21T10:22:38;18.40;99.90
23271;DHT22;11804;51.118;17.058;2022-08-21T10:25:31;18.40;99.90
23271;DHT22;11804;51.118;17.058;2022-08-21T10:33:43;18.40;99.90
23271;DHT22;11804;51.118;17.058;2022-08-21T10:36:33;18.50;99.90
23271;DHT22;11804;51.118;17.058;2022-08-21T10:39:10;18.50;99.90
23271;DHT22;11804;51.118;17.058;2022-08-21T10:47:18;18.50;99.90
23271;DHT22;11804;51.118;17.058;2022-08-21T10:49:54;18.60;99.90
23271;DHT22;11804;51.118;17.058;2022-08-21T10:52:37;18.60;99.90
23271;DHT22;11804;51.118;17.058;2022-08-21T10:55:31;18.70;99.90
23271;DHT22;11804;51.118;17.058;2022-08-21T10:58:10;18.80;99.90
23271;DHT22;11804;51.118;17.058;2022-08-21T11:00:46;18.80;99.90
23271;DHT22;11804;51.118;17.058;2022-08-21T11:03:35;18.80;99.90
23271;DHT22;11804;51.118;17.058;2022-08-21T11:06:14;18.90;99.90
23271;DHT22;11804;51.118;17.058;2022-08-21T11:08:45;19.10;99.90
23271;DHT22;11804;51.118;17.058;2022-08-21T11:13:52;19.10;99.90
23271;DHT22;11804;51.118;17.058;2022-08-21T11:16:23;19.10;99.90
23271;DHT22;11804;51.118;17.058;2022-08-21T11:19:08;19.00;99.90
23271;DHT22;11804;51.118;17.058;2022-08-21T11:21:52;18.90;99.90
23271;DHT22;11804;51.118;17.058;2022-08-21T11:24:42;18.80;99.90
23271;DHT22;11804;51.118;17.058;2022-08-21T11:27:36;18.80;99.90
23271;DHT22;11804;51.118;17.058;2022-08-21T11:30:03;18.60;99.90
23271;DHT22;11804;51.118;17.058;2022-08-21T11:32:51;18.50;99.90
23271;DHT22;11804;51.118;17.058;2022-08-21T11:35:39;18.60;99.90
23271;DHT22;11804;51.118;17.058;2022-08-21T11:38:39;18.50;99.90
23271;DHT22;11804;51.118;17.058;2022-08-21T11:41:39;18.60;99.90
23271;DHT22;11804;51.118;17.058;2022-08-21T11:47:02;18.60;99.90
23271;DHT22;11804;51.118;17.058;2022-08-21T11:52:23;18.60;99.90
23271;DHT22;11804;51.118;17.058;2022-08-21T11:55:05;18.60;99.90
23271;DHT22;11804;51.118;17.058;2022-08-21T12:00:16;18.60;99.90
23271;DHT22;11804;51.118;17.058;2022-08-21T12:02:52;18.70;99.90
23271;DHT22;11804;51.118;17.058;2022-08-21T12:05:33;18.70;99.90
23271;DHT22;11804;51.118;17.058;2022-08-21T12:08:05;18.60;99.90
23271;DHT22;11804;51.118;17.058;2022-08-21T12:13:31;18.70;99.90
23271;DHT22;11804;51.118;17.058;2022-08-21T12:16:13;18.80;99.90
23271;DHT22;11804;51.118;17.058;2022-08-21T12:18:42;18.80;99.90
23271;DHT22;11804;51.118;17.058;2022-08-21T12:21:25;18.80;99.90
23271;DHT22;11804;51.118;17.058;2022-08-21T12:27:13;18.90;99.90
23271;DHT22;11804;51.118;17.058;2022-08-21T12:29:32;18.90;99.90
23271;DHT22;11804;51.118;17.058;2022-08-21T12:32:25;18.90;99.90
23271;DHT22;11804;51.118;17.058;2022-08-21T12:34:38;18.90;99.90
23271;DHT22;11804;51.118;17.058;2022-08-21T12:37:43;18.90;99.90
23271;DHT22;11804;51.118;17.058;2022-08-21T12:40:20;19.00;99.90
23271;DHT22;11804;51.118;17.058;2022-08-21T12:42:50;19.00;99.90
23271;DHT22;11804;51.118;17.058;2022-08-21T12:45:34;19.00;99.90
23271;DHT22;11804;51.118;17.058;2022-08-21T12:50:55;19.00;99.90
23271;DHT22;11804;51.118;17.058;2022-08-21T12:53:32;19.00;99.90
23271;DHT22;11804;51.118;17.058;2022-08-21T12:56:07;18.90;99.90
23271;DHT22;11804;51.118;17.058;2022-08-21T12:58:34;18.90;99.90
23271;DHT22;11804;51.118;17.058;2022-08-21T13:01:07;18.90;99.90
23271;DHT22;11804;51.118;17.058;2022-08-21T13:03:36;18.90;99.90
23271;DHT22;11804;51.118;17.058;2022-08-21T13:06:05;19.00;99.90
23271;DHT22;11804;51.118;17.058;2022-08-21T13:08:35;19.00;99.90
23271;DHT22;11804;51.118;17.058;2022-08-21T13:11:05;19.10;99.90
23271;DHT22;11804;51.118;17.058;2022-08-21T13:13:33;19.00;99.90
23271;DHT22;11804;51.118;17.058;2022-08-21T13:16:06;18.90;99.90
23271;DHT22;11804;51.118;17.058;2022-08-21T13:18:37;18.90;99.90
23271;DHT22;11804;51.118;17.058;2022-08-21T13:21:14;18.90;99.90
23271;DHT22;11804;51.118;17.058;2022-08-21T13:23:41;19.00;99.90
23271;DHT22;11804;51.118;17.058;2022-08-21T13:26:16;19.10;99.90
23271;DHT22;11804;51.118;17.058;2022-08-21T13:28:45;19.10;99.90
23271;DHT22;11804;51.118;17.058;2022-08-21T13:31:25;19.10;99.90
23271;DHT22;11804;51.118;17.058;2022-08-21T13:33:48;19.10;99.90
23271;DHT22;11804;51.118;17.058;2022-08-21T13:36:24;19.20;99.90
23271;DHT22;11804;51.118;17.058;2022-08-21T13:38:51;19.20;99.90
23271;DHT22;11804;51.118;17.058;2022-08-21T13:41:30;19.20;99.90
23271;DHT22;11804;51.118;17.058;2022-08-21T13:44:14;19.20;99.90
23271;DHT22;11804;51.118;17.058;2022-08-21T13:46:42;19.30;99.90
23271;DHT22;11804;51.118;17.058;2022-08-21T13:49:12;19.30;99.90
23271;DHT22;11804;51.118;17.058;2022-08-21T13:51:40;19.30;99.90
23271;DHT22;11804;51.118;17.058;2022-08-21T13:54:18;19.40;99.90
23271;DHT22;11804;51.118;17.058;2022-08-21T13:56:46;19.30;99.90
23271;DHT22;11804;51.118;17.058;2022-08-21T13:59:29;19.30;99.90
23271;DHT22;11804;51.118;17.058;2022-08-21T14:01:56;19.40;99.90
23271;DHT22;11804;51.118;17.058;2022-08-21T14:04:33;19.30;99.90
23271;DHT22;11804;51.118;17.058;2022-08-21T14:07:02;19.30;99.90
23271;DHT22;11804;51.118;17.058;2022-08-21T14:09:33;19.40;99.90
23271;DHT22;11804;51.118;17.058;2022-08-21T14:12:11;19.40;99.90
23271;DHT22;11804;51.118;17.058;2022-08-21T14:14:33;19.40;99.90
23271;DHT22;11804;51.118;17.058;2022-08-21T14:17:09;19.40;99.90
23271;DHT22;11804;51.118;17.058;2022-08-21T14:19:38;19.30;99.90
23271;DHT22;11804;51.118;17.058;2022-08-21T14:22:29;19.40;99.90
23271;DHT22;11804;51.118;17.058;2022-08-21T14:25:03;19.50;99.90
23271;DHT22;11804;51.118;17.058;2022-08-21T14:27:34;19.50;99.90
23271;DHT22;11804;51.118;17.058;2022-08-21T14:30:20;19.60;99.90
23271;DHT22;11804;51.118;17.058;2022-08-21T14:32:48;19.60;99.90
23271;DHT22;11804;51.118;17.058;2022-08-21T14:35:16;19.60;99.90
23271;DHT22;11804;51.118;17.058;2022-08-21T14:37:44;19.50;99.90
23271;DHT22;11804;51.118;17.058;2022-08-21T14:40:12;19.50;99.90
23271;DHT22;11804;51.118;17.058;2022-08-21T14:42:41;19.40;99.90
23271;DHT22;11804;51.118;17.058;2022-08-21T14:45:19;19.40;99.90
23271;DHT22;11804;51.118;17.058;2022-08-21T14:47:46;19.40;99.90
23271;DHT22;11804;51.118;17.058;2022-08-21T14:50:14;19.40;99.90
23271;DHT22;11804;51.118;17.058;2022-08-21T14:52:42;19.40;99.90
23271;DHT22;11804;51.118;17.058;2022-08-21T14:55:11;19.30;99.90
23271;DHT22;11804;51.118;17.058;2022-08-21T14:57:51;19.30;99.90
23271;DHT22;11804;51.118;17.058;2022-08-21T15:00:18;19.30;99.90
23271;DHT22;11804;51.118;17.058;2022-08-21T15:02:46;19.30;99.90
23271;DHT22;11804;51.118;17.058;2022-08-21T15:05:14;19.30;99.90
23271;DHT22;11804;51.118;17.058;2022-08-21T15:07:42;19.20;99.90
23271;DHT22;11804;51.118;17.058;2022-08-21T15:10:11;19.20;99.90
23271;DHT22;11804;51.118;17.058;2022-08-21T15:12:39;19.30;99.90
23271;DHT22;11804;51.118;17.058;2022-08-21T15:15:07;19.30;99.90
23271;DHT22;11804;51.118;17.058;2022-08-21T15:17:36;19.30;99.90
23271;DHT22;11804;51.118;17.058;2022-08-21T15:20:04;19.20;99.90
23271;DHT22;11804;51.118;17.058;2022-08-21T15:22:32;19.30;99.90
23271;DHT22;11804;51.118;17.058;2022-08-21T15:25:01;19.30;99.90
23271;DHT22;11804;51.118;17.058;2022-08-21T15:27:29;19.40;99.90
23271;DHT22;11804;51.118;17.058;2022-08-21T15:29:57;19.40;99.90
23271;DHT22;11804;51.118;17.058;2022-08-21T15:32:26;19.40;99.90
23271;DHT22;11804;51.118;17.058;2022-08-21T15:34:56;19.40;99.90
23271;DHT22;11804;51.118;17.058;2022-08-21T15:37:25;19.40;99.90
23271;DHT22;11804;51.118;17.058;2022-08-21T15:39:53;19.40;99.90
23271;DHT22;11804;51.118;17.058;2022-08-21T15:42:21;19.40;99.90
23271;DHT22;11804;51.118;17.058;2022-08-21T15:44:49;19.40;99.90
23271;DHT22;11804;51.118;17.058;2022-08-21T15:47:22;19.30;99.90
23271;DHT22;11804;51.118;17.058;2022-08-21T15:49:50;19.40;99.90
23271;DHT22;11804;51.118;17.058;2022-08-21T15:52:19;19.30;99.90
23271;DHT22;11804;51.118;17.058;2022-08-21T15:54:48;19.30;99.90
23271;DHT22;11804;51.118;17.058;2022-08-21T15:57:18;19.30;99.90
23271;DHT22;11804;51.118;17.058;2022-08-21T15:59:55;19.40;99.90
23271;DHT22;11804;51.118;17.058;2022-08-21T16:02:29;19.30;99.90
23271;DHT22;11804;51.118;17.058;2022-08-21T16:04:57;19.30;99.90
23271;DHT22;11804;51.118;17.058;2022-08-21T16:07:25;19.30;99.90
23271;DHT22;11804;51.118;17.058;2022-08-21T16:09:53;19.30;99.90
23271;DHT22;11804;51.118;17.058;2022-08-21T16:12:25;19.30;99.90
23271;DHT22;11804;51.118;17.058;2022-08-21T16:14:54;19.30;99.90
23271;DHT22;11804;51.118;17.058;2022-08-21T16:17:29;19.30;99.90
23271;DHT22;11804;51.118;17.058;2022-08-21T16:19:52;19.30;99.90
23271;DHT22;11804;51.118;17.058;2022-08-21T16:22:20;19.30;99.90
23271;DHT22;11804;51.118;17.058;2022-08-21T16:24:47;19.30;99.90
23271;DHT22;11804;51.118;17.058;2022-08-21T16:27:15;19.30;99.90